Current Conditions
Mostly Cloudy
Conditions



Pressure
1018.92 (hPa) - 30.09 (inHG)
Visibility

10.0 (km) - 6.2 (miles)
   Temperature
20  °C
68°F
17  °C
Dewpoint
83  %
 Humidity
   Wind Speed
4.0  m/s
9  mph
14  km/h
8  kts
   Wind Direction
 260°
Due West
   Airport Data
URKA
Location Anapa 118 km (73.34 mi)
Metar :URKA 171030Z 26004MPS 9999 BKN011 20/17 Q1019 R22/010070 NOSIG RMK QFE759/1012
Thu 17th October 13:30 pm
   Raw Metar Info
Raw METAR is the most common format in the world for the transmission of observational weather data. It is highly standardized through the International Civil Aviation Organization (ICAO), which allows it to be understood throughout most of the world.
   API Info
Data Provided by
https://www.checkwx.com/weather/URKA
   © Info
CSS/SVG/PHP scripts were developed by weather34.com for use in the weather34 template © 2015-2019

Guide Info provided by Metar-Wikipedia